Time;durP1;ratioP1;P1;durP2;ratioP2;P2;SDS_P1;SDS_P2;PMS_P1;PMS_P2;Temp;Humidity;BMP_temperature;BMP_pressure;BME280_temperature;BME280_humidity;BME280_pressure;Samples;Min_cycle;Max_cycle;Signal;HPM_P1;HPM_P2
2024/02/13 00:00:40;;;;;;;10.82;7.18;;;;;;;6.99;93.48;97949.94;5163013;23;20205;-88
2024/02/13 00:02:43;;;;;;;8.80;7.05;;;;;;;6.96;94.16;97950.09;5162685;23;20652;-90
2024/02/13 00:04:48;;;;;;;11.40;7.13;;;;;;;6.97;94.08;97947.44;5162730;23;20610;-90
2024/02/13 00:06:54;;;;;;;12.57;7.28;;;;;;;6.96;93.50;97947.50;5136298;23;20203;-91
2024/02/13 00:08:57;;;;;;;11.18;8.15;;;;;;;6.92;93.73;97953.81;5137404;23;20606;-91
2024/02/13 00:11:04;;;;;;;15.35;9.20;;;;;;;6.89;93.86;97961.75;5137861;23;20189;-90
2024/02/13 00:13:08;;;;;;;15.45;8.93;;;;;;;6.86;93.71;97964.53;5137378;23;20222;-88
2024/02/13 00:15:18;;;;;;;12.80;8.65;;;;;;;6.83;93.33;97960.34;5162603;23;20185;-88
2024/02/13 00:17:23;;;;;;;8.38;6.20;;;;;;;6.75;93.48;97966.84;5162522;23;20178;-87
2024/02/13 00:19:26;;;;;;;9.90;8.32;;;;;;;6.71;93.32;97967.97;5136907;23;20182;-88
2024/02/13 00:21:29;;;;;;;10.27;7.65;;;;;;;6.72;93.74;97977.38;5161834;23;20174;-87
2024/02/13 00:23:34;;;;;;;15.00;8.23;;;;;;;6.74;94.53;97980.75;5138165;23;20275;-88
2024/02/13 00:25:37;;;;;;;10.95;7.13;;;;;;;6.81;94.72;97982.06;5137531;23;20185;-88
2024/02/13 00:27:40;;;;;;;11.68;6.72;;;;;;;6.87;94.83;97994.69;5162276;23;20230;-88
2024/02/13 00:29:45;;;;;;;11.77;7.63;;;;;;;6.90;94.39;98004.88;5162620;23;20200;-88
2024/02/13 00:31:50;;;;;;;11.13;7.20;;;;;;;6.94;95.75;98001.22;5137698;23;20181;-88
2024/02/13 00:34:13;;;;;;;11.57;7.43;;;;;;;6.98;94.85;98002.72;5167107;22;20176;-87
2024/02/13 00:36:17;;;;;;;11.55;7.85;;;;;;;6.97;95.13;98006.22;5137165;23;20178;-87
2024/02/13 00:38:19;;;;;;;10.35;7.40;;;;;;;6.98;95.19;98006.13;5161899;23;20617;-88
2024/02/13 00:40:22;;;;;;;11.05;6.80;;;;;;;7.01;94.90;98007.72;5137249;23;20189;-88
2024/02/13 00:42:26;;;;;;;9.98;7.13;;;;;;;7.03;95.41;98015.31;5137770;23;20583;-87
2024/02/13 00:44:29;;;;;;;10.70;7.03;;;;;;;7.04;95.72;98018.75;5138125;23;20186;-88
2024/02/13 00:46:34;;;;;;;12.93;8.05;;;;;;;7.05;95.46;98026.44;5189094;22;20181;-88
2024/02/13 00:48:39;;;;;;;9.90;7.90;;;;;;;7.06;94.58;98029.88;5137344;23;20178;-87
2024/02/13 00:50:44;;;;;;;16.35;8.70;;;;;;;7.04;94.79;98034.31;5162684;23;20196;-88
2024/02/13 00:52:46;;;;;;;10.40;7.35;;;;;;;7.00;94.32;98037.16;5162019;23;20176;-88
2024/02/13 00:54:51;;;;;;;11.52;6.97;;;;;;;6.87;93.31;98039.59;5162808;23;20270;-87
2024/02/13 00:56:54;;;;;;;11.82;7.80;;;;;;;6.80;93.76;98045.19;5189227;22;20179;-87
2024/02/13 00:59:03;;;;;;;22.75;11.82;;;;;;;6.76;93.71;98054.88;5136889;23;20178;-87
2024/02/13 01:01:06;;;;;;;13.85;9.00;;;;;;;6.76;93.46;98060.03;5133860;23;20537;-87
2024/02/13 01:03:10;;;;;;;12.25;7.88;;;;;;;6.79;93.94;98062.47;5137844;23;20174;-88
2024/02/13 01:05:16;;;;;;;14.05;8.05;;;;;;;6.81;94.02;98057.22;5137356;23;20309;-88
2024/02/13 01:07:19;;;;;;;12.55;7.53;;;;;;;6.86;94.06;98065.59;5161562;23;20183;-83
2024/02/13 01:09:23;;;;;;;12.13;7.45;;;;;;;6.87;94.65;98070.69;5137054;23;20194;-82
2024/02/13 01:11:25;;;;;;;11.80;7.93;;;;;;;6.89;94.43;98076.63;5162535;23;20175;-82
2024/02/13 01:13:29;;;;;;;11.95;8.10;;;;;;;6.94;94.20;98073.78;5136609;23;20198;-82
2024/02/13 01:15:33;;;;;;;12.80;7.90;;;;;;;6.97;94.68;98087.41;5138968;23;20594;-82
2024/02/13 01:17:36;;;;;;;14.50;8.07;;;;;;;6.99;95.88;98095.97;5138520;23;20181;-82
2024/02/13 01:19:40;;;;;;;12.30;7.20;;;;;;;7.00;95.23;98096.78;5191002;22;20184;-82
2024/02/13 01:21:45;;;;;;;9.88;6.97;;;;;;;7.02;96.14;98102.72;5138807;23;20177;-82
2024/02/13 01:23:48;;;;;;;8.85;6.57;;;;;;;7.04;96.21;98107.72;5139744;23;20258;-83
2024/02/13 01:25:51;;;;;;;12.60;8.15;;;;;;;7.04;96.13;98112.09;5138799;23;20260;-82
2024/02/13 01:27:55;;;;;;;15.32;8.20;;;;;;;7.00;94.94;98110.56;5162878;23;20188;-82
2024/02/13 01:29:58;;;;;;;15.95;8.80;;;;;;;6.99;94.74;98108.06;5163715;23;20641;-82
2024/02/13 01:32:01;;;;;;;15.75;8.90;;;;;;;6.97;94.80;98109.91;5163456;23;20207;-85
2024/02/13 01:34:07;;;;;;;17.05;8.65;;;;;;;6.93;94.53;98104.06;5138973;23;20180;-82
2024/02/13 01:36:10;;;;;;;12.55;8.32;;;;;;;6.94;94.74;98105.72;5138765;23;20178;-82
2024/02/13 01:38:15;;;;;;;13.30;7.20;;;;;;;7.01;95.46;98124.38;5136151;23;20174;-82
2024/02/13 01:40:18;;;;;;;8.68;6.82;;;;;;;7.09;95.32;98120.44;5164349;23;20184;-83
2024/02/13 01:42:20;;;;;;;8.25;6.38;;;;;;;7.17;96.27;98120.84;5138978;23;20234;-82
2024/02/13 01:44:27;;;;;;;12.40;7.20;;;;;;;7.22;96.49;98124.88;5163365;23;20168;-82
2024/02/13 01:46:30;;;;;;;11.15;7.93;;;;;;;7.24;95.43;98130.00;5138338;23;20669;-82
2024/02/13 01:48:36;;;;;;;12.43;7.82;;;;;;;7.27;95.36;98133.25;5137973;23;20269;-82
2024/02/13 01:50:40;;;;;;;13.00;6.07;;;;;;;7.31;95.37;98126.16;5163232;23;20193;-82
2024/02/13 01:52:42;;;;;;;12.63;7.13;;;;;;;7.33;96.08;98130.31;5138882;23;20181;-82
2024/02/13 01:54:47;;;;;;;11.88;7.38;;;;;;;7.34;95.35;98136.34;5138441;23;20656;-82
2024/02/13 01:56:52;;;;;;;10.07;7.35;;;;;;;7.33;96.53;98137.25;5163653;23;20624;-82
2024/02/13 01:58:55;;;;;;;15.88;9.10;;;;;;;7.32;95.45;98138.19;5163293;23;20209;-82
2024/02/13 02:01:04;;;;;;;14.50;10.35;;;;;;;7.32;95.44;98136.44;5163371;23;20181;-83
2024/02/13 02:03:07;;;;;;;13.70;7.03;;;;;;;7.35;94.88;98144.06;5138746;23;20747;-83
2024/02/13 02:05:13;;;;;;;9.68;5.85;;;;;;;7.37;95.66;98142.22;5137359;23;20177;-82
2024/02/13 02:07:27;;;;;;;10.98;7.00;;;;;;;7.40;95.62;98149.81;5164683;22;20656;-83
2024/02/13 02:09:30;;;;;;;8.85;6.10;;;;;;;7.39;95.12;98148.13;5138688;23;20227;-82
2024/02/13 02:11:34;;;;;;;9.52;6.55;;;;;;;7.40;95.85;98151.59;5162734;23;20331;-82
2024/02/13 02:13:38;;;;;;;8.27;5.68;;;;;;;7.42;95.96;98149.75;5163999;23;20235;-83
2024/02/13 02:16:00;;;;;;;9.93;6.53;;;;;;;7.45;96.45;98160.78;5163614;23;20176;-82
2024/02/13 02:18:04;;;;;;;8.05;6.35;;;;;;;7.45;95.37;98155.59;5136978;23;20198;-83
2024/02/13 02:20:09;;;;;;;8.50;5.70;;;;;;;7.46;95.24;98156.41;5138206;23;20197;-82
2024/02/13 02:22:12;;;;;;;9.75;4.80;;;;;;;7.47;96.05;98156.31;5164468;23;20174;-82
2024/02/13 02:24:14;;;;;;;7.18;5.55;;;;;;;7.48;95.75;98160.59;5163204;23;20191;-82
2024/02/13 02:26:30;;;;;;;10.55;5.30;;;;;;;7.48;95.47;98161.44;5139752;23;20178;-82
2024/02/13 02:28:43;;;;;;;6.45;4.47;;;;;;;7.49;96.14;98165.72;5158719;23;20169;-83
2024/02/13 02:30:47;;;;;;;8.35;4.80;;;;;;;7.51;95.51;98161.25;5138304;23;20644;-83
2024/02/13 02:32:49;;;;;;;8.15;4.97;;;;;;;7.54;96.46;98165.47;5137939;23;20209;-82
2024/02/13 02:34:55;;;;;;;8.45;4.68;;;;;;;7.56;95.60;98168.78;5138688;23;20615;-82
2024/02/13 02:36:58;;;;;;;6.18;4.50;;;;;;;7.58;96.55;98162.59;5137531;23;20177;-83
2024/02/13 02:39:02;;;;;;;6.00;4.47;;;;;;;7.60;96.02;98172.91;5163436;23;20180;-83
2024/02/13 02:41:06;;;;;;;11.60;6.10;;;;;;;7.62;95.59;98171.91;5164127;23;20233;-83
2024/02/13 02:43:11;;;;;;;9.13;5.03;;;;;;;7.66;95.04;98175.16;5139665;23;20490;-83
2024/02/13 02:45:15;;;;;;;5.40;4.65;;;;;;;7.69;95.81;98180.19;5139287;23;20212;-83
2024/02/13 02:47:19;;;;;;;10.52;4.97;;;;;;;7.70;95.46;98180.09;5137954;23;20174;-83
2024/02/13 02:49:22;;;;;;;8.75;4.70;;;;;;;7.73;95.88;98177.34;5163691;23;20177;-82
2024/02/13 02:51:25;;;;;;;6.85;4.68;;;;;;;7.73;95.30;98179.94;5163150;23;20204;-82
2024/02/13 02:53:29;;;;;;;7.10;4.75;;;;;;;7.72;95.52;98186.03;5138830;23;20217;-82
2024/02/13 02:55:32;;;;;;;10.57;5.10;;;;;;;7.68;95.59;98179.34;5139392;23;20651;-82
2024/02/13 02:57:34;;;;;;;7.30;5.30;;;;;;;7.66;94.97;98177.75;5164394;23;20173;-82
2024/02/13 02:59:39;;;;;;;7.88;5.45;;;;;;;7.61;95.05;98178.00;5139204;23;20198;-82
2024/02/13 03:01:42;;;;;;;7.82;5.03;;;;;;;7.57;95.16;98173.06;5139727;23;20257;-82
2024/02/13 03:03:44;;;;;;;10.45;5.88;;;;;;;7.54;94.58;98178.44;5192669;22;20238;-82
2024/02/13 03:05:48;;;;;;;10.85;4.95;;;;;;;7.54;95.29;98186.22;5164628;23;20195;-82
2024/02/13 03:07:51;;;;;;;9.73;5.38;;;;;;;7.51;96.21;98188.97;5161341;23;20264;-82
2024/02/13 03:09:53;;;;;;;5.50;4.15;;;;;;;7.52;96.07;98204.47;5137493;23;20184;-82
2024/02/13 03:11:57;;;;;;;8.15;4.80;;;;;;;7.50;94.59;98195.94;5138200;23;20197;-82
2024/02/13 03:14:00;;;;;;;6.60;4.60;;;;;;;7.49;95.06;98193.41;5188620;22;20181;-82
2024/02/13 03:16:05;;;;;;;8.85;4.85;;;;;;;7.44;95.78;98200.59;5161857;23;20284;-83
2024/02/13 03:18:09;;;;;;;9.05;4.10;;;;;;;7.39;95.09;98200.00;5137031;23;20178;-83
2024/02/13 03:20:13;;;;;;;6.72;4.18;;;;;;;7.37;94.47;98199.28;5137659;23;20178;-82
2024/02/13 03:22:31;;;;;;;11.38;6.05;;;;;;;7.31;94.91;98203.97;5163678;23;20180;-82
2024/02/13 03:24:34;;;;;;;9.50;6.25;;;;;;;7.26;94.57;98205.94;5138605;23;20188;-83
2024/02/13 03:26:37;;;;;;;11.90;6.50;;;;;;;7.23;95.32;98201.78;5162958;23;20234;-88
2024/02/13 03:29:02;;;;;;;8.10;6.05;;;;;;;7.20;95.40;98217.50;5166822;22;20180;-88
2024/02/13 03:31:06;;;;;;;9.77;5.78;;;;;;;7.19;95.98;98207.22;5137904;23;20283;-87
2024/02/13 03:33:10;;;;;;;8.85;6.05;;;;;;;7.19;95.80;98215.81;5138020;23;20207;-87
2024/02/13 03:35:14;;;;;;;7.05;4.80;;;;;;;7.20;95.38;98221.81;5189998;22;20187;-86
2024/02/13 03:37:16;;;;;;;7.13;4.55;;;;;;;7.19;95.32;98226.19;5162714;23;20183;-86
2024/02/13 03:39:20;;;;;;;7.07;4.00;;;;;;;7.20;95.85;98222.69;5162602;23;20181;-87
2024/02/13 03:41:23;;;;;;;6.97;4.20;;;;;;;7.17;95.30;98219.41;5137755;23;20225;-88
2024/02/13 03:43:27;;;;;;;9.75;4.57;;;;;;;7.16;95.45;98225.53;5137356;23;20178;-87
2024/02/13 03:45:30;;;;;;;10.13;5.75;;;;;;;7.13;94.80;98231.69;5138092;23;20561;-88
2024/02/13 03:47:43;;;;;;;7.78;5.20;;;;;;;7.04;94.48;98229.56;5137514;23;20686;-87
2024/02/13 03:49:46;;;;;;;7.20;4.70;;;;;;;6.93;94.78;98230.22;5137665;23;20176;-88
2024/02/13 03:51:50;;;;;;;6.53;3.65;;;;;;;6.97;95.87;98229.97;5162755;23;20549;-88
2024/02/13 03:53:52;;;;;;;8.48;4.40;;;;;;;7.01;95.34;98233.28;5138196;23;20632;-87
2024/02/13 03:55:55;;;;;;;7.30;3.78;;;;;;;7.07;95.10;98246.75;5138230;23;20170;-88
2024/02/13 03:57:58;;;;;;;5.78;3.85;;;;;;;7.15;96.05;98241.97;5137577;23;20182;-87
2024/02/13 04:00:05;;;;;;;6.00;3.78;;;;;;;7.20;96.03;98242.56;5138030;23;20534;-87
2024/02/13 04:02:11;;;;;;;6.10;3.50;;;;;;;7.24;96.69;98238.91;5163099;23;20173;-88
2024/02/13 04:04:15;;;;;;;5.90;3.70;;;;;;;7.25;96.92;98238.84;5138092;23;20276;-88
2024/02/13 04:06:18;;;;;;;6.80;3.47;;;;;;;7.30;96.45;98244.59;5137624;23;20566;-88
2024/02/13 04:08:21;;;;;;;8.23;5.15;;;;;;;7.32;95.69;98247.97;5162468;23;20176;-88
2024/02/13 04:10:25;;;;;;;9.55;7.00;;;;;;;7.28;95.52;98243.03;5138223;23;20631;-88
2024/02/13 04:12:31;;;;;;;15.93;6.90;;;;;;;7.18;94.84;98250.44;5163263;23;20281;-88
2024/02/13 04:14:34;;;;;;;7.45;4.97;;;;;;;7.11;93.89;98243.06;5189623;22;20207;-88
2024/02/13 04:16:39;;;;;;;9.23;6.40;;;;;;;7.05;93.91;98244.22;5162236;23;20169;-87
2024/02/13 04:18:43;;;;;;;9.10;6.35;;;;;;;7.00;93.17;98236.78;5188270;22;20228;-88
2024/02/13 04:20:48;;;;;;;8.93;5.55;;;;;;;6.97;93.92;98247.28;5138025;22;20247;-88
2024/02/13 04:22:53;;;;;;;7.80;4.93;;;;;;;6.92;94.11;98244.13;5163366;22;20206;-88
2024/02/13 04:24:57;;;;;;;6.18;5.15;;;;;;;6.89;93.72;98254.63;5162722;23;20248;-88
2024/02/13 04:27:00;;;;;;;8.90;5.63;;;;;;;6.86;94.34;98253.03;5189701;22;20231;-87
2024/02/13 04:29:04;;;;;;;8.35;5.20;;;;;;;6.84;93.81;98251.41;5136895;23;20174;-88
2024/02/13 04:31:06;;;;;;;6.57;4.95;;;;;;;6.81;94.48;98251.56;5137627;23;20170;-88
2024/02/13 04:33:12;;;;;;;8.88;5.30;;;;;;;6.78;93.92;98250.00;5163555;23;20214;-86
2024/02/13 04:35:15;;;;;;;7.85;5.55;;;;;;;6.72;93.94;98244.25;5162595;23;20200;-88
2024/02/13 04:37:22;;;;;;;7.95;5.05;;;;;;;6.69;94.31;98254.78;5162036;23;20260;-83
2024/02/13 04:39:26;;;;;;;9.15;6.05;;;;;;;6.66;94.46;98247.16;5137531;23;20205;-82
2024/02/13 04:41:30;;;;;;;8.23;5.53;;;;;;;6.64;94.73;98246.41;5138118;23;20215;-82
2024/02/13 04:43:33;;;;;;;7.35;5.30;;;;;;;6.61;93.77;98246.56;5188744;22;20573;-83
2024/02/13 04:45:37;;;;;;;7.72;5.13;;;;;;;6.56;93.53;98251.16;5137353;23;20557;-85
2024/02/13 04:47:40;;;;;;;9.70;5.25;;;;;;;6.53;93.34;98259.06;5187453;22;20237;-85
2024/02/13 04:49:44;;;;;;;9.38;5.88;;;;;;;6.47;93.92;98258.56;5138743;23;20503;-85
2024/02/13 04:51:47;;;;;;;9.60;6.32;;;;;;;6.43;93.60;98250.06;5138980;23;20642;-85
2024/02/13 04:53:52;;;;;;;10.95;5.75;;;;;;;6.40;93.27;98245.03;5163143;22;20185;-85
2024/02/13 04:55:58;;;;;;;7.57;5.35;;;;;;;6.38;93.54;98254.66;5164612;22;20618;-85
2024/02/13 04:58:02;;;;;;;9.45;5.40;;;;;;;6.35;94.32;98249.63;5189978;22;20545;-85
2024/02/13 05:00:16;;;;;;;9.98;5.65;;;;;;;6.35;93.97;98259.97;5191518;22;20257;-85
2024/02/13 05:02:21;;;;;;;7.75;5.30;;;;;;;6.34;94.73;98262.63;5163691;22;20611;-83
2024/02/13 05:09:10;;;;;;;8.18;5.40;;;;;;;6.32;94.70;98265.31;5190847;22;20342;-82
2024/02/13 05:11:14;;;;;;;10.43;5.65;;;;;;;6.33;95.12;98263.53;5163458;23;20280;-82
2024/02/13 05:13:19;;;;;;;10.90;5.80;;;;;;;6.33;94.50;98267.00;5138456;23;20620;-83
2024/02/13 05:15:23;;;;;;;9.50;6.00;;;;;;;6.33;94.69;98264.41;5190096;22;20208;-83
2024/02/13 05:17:27;;;;;;;11.60;6.40;;;;;;;6.32;95.09;98264.47;5162882;23;20180;-83
2024/02/13 05:19:30;;;;;;;11.60;6.00;;;;;;;6.31;95.24;98267.97;5137470;23;20207;-83
2024/02/13 05:21:35;;;;;;;11.82;6.38;;;;;;;6.30;95.28;98267.16;5139221;23;20203;-83
2024/02/13 05:23:39;;;;;;;10.18;6.82;;;;;;;6.32;95.35;98264.47;5163585;23;20206;-82
2024/02/13 05:25:45;;;;;;;11.15;6.05;;;;;;;6.33;94.97;98258.38;5162955;23;20170;-83
2024/02/13 05:27:50;;;;;;;8.60;5.40;;;;;;;6.34;95.58;98266.06;5162799;23;20160;-83
2024/02/13 05:29:53;;;;;;;12.75;6.05;;;;;;;6.32;95.39;98265.31;5190779;22;20220;-82
2024/02/13 05:31:56;;;;;;;8.65;5.38;;;;;;;6.33;95.61;98260.97;5164247;23;20190;-82
2024/02/13 05:34:00;;;;;;;10.15;5.75;;;;;;;6.31;95.72;98265.38;5139267;23;20176;-83
2024/02/13 05:36:04;;;;;;;12.43;6.53;;;;;;;6.33;95.15;98267.00;5162626;23;20651;-83
2024/02/13 05:38:07;;;;;;;11.45;6.05;;;;;;;6.36;95.70;98273.75;5162693;23;20179;-83
2024/02/13 05:40:11;;;;;;;8.40;5.63;;;;;;;6.33;95.71;98264.41;5138857;23;20186;-82
2024/02/13 05:42:18;;;;;;;11.10;5.75;;;;;;;6.34;95.32;98265.22;5190652;22;20173;-82
2024/02/13 05:44:22;;;;;;;10.27;6.40;;;;;;;6.33;95.62;98269.59;5139022;23;20171;-83
2024/02/13 05:46:24;;;;;;;11.52;6.70;;;;;;;6.33;95.51;98272.19;5137530;23;20176;-88
2024/02/13 05:48:27;;;;;;;9.68;6.45;;;;;;;6.36;95.73;98273.75;5138035;23;20185;-88
2024/02/13 05:50:30;;;;;;;9.50;6.30;;;;;;;6.39;95.58;98278.78;5191006;22;20620;-88
2024/02/13 05:52:34;;;;;;;10.68;7.10;;;;;;;6.41;95.69;98289.94;5163717;23;20199;-87
2024/02/13 05:54:37;;;;;;;11.00;7.13;;;;;;;6.43;95.21;98288.09;5137721;23;20262;-87
2024/02/13 05:56:46;;;;;;;11.45;6.75;;;;;;;6.39;95.54;98286.56;5164080;23;20183;-87
2024/02/13 05:58:50;;;;;;;15.07;6.63;;;;;;;6.38;95.53;98282.31;5163746;23;20567;-88
2024/02/13 06:00:54;;;;;;;7.95;6.00;;;;;;;6.38;95.60;98285.72;5138677;23;20832;-88
2024/02/13 06:03:00;;;;;;;12.18;7.20;;;;;;;6.39;95.69;98286.56;5139214;23;20173;-87
2024/02/13 06:05:06;;;;;;;7.75;6.45;;;;;;;6.39;96.10;98289.16;5164102;23;20266;-87
2024/02/13 06:07:09;;;;;;;11.77;7.90;;;;;;;6.40;95.14;98291.66;5189257;22;20178;-88
2024/02/13 06:09:13;;;;;;;9.93;7.07;;;;;;;6.39;95.83;98297.78;5138448;23;20177;-88
2024/02/13 06:11:16;;;;;;;12.90;8.15;;;;;;;6.38;96.02;98296.09;5164845;23;20835;-91
2024/02/13 06:13:19;;;;;;;14.68;6.78;;;;;;;6.38;95.76;98300.44;5137606;23;20210;-90
2024/02/13 06:15:25;;;;;;;14.43;6.85;;;;;;;6.37;95.99;98304.75;5190769;22;20206;-90
2024/02/13 06:17:28;;;;;;;11.45;6.80;;;;;;;6.35;95.73;98301.41;5163192;23;20203;-91
2024/02/13 06:19:31;;;;;;;9.10;7.35;;;;;;;6.39;95.43;98302.09;5163772;23;20178;-90
2024/02/13 06:21:34;;;;;;;10.50;7.25;;;;;;;6.39;96.48;98302.94;5190539;22;20185;-90
2024/02/13 06:23:37;;;;;;;11.73;7.15;;;;;;;6.41;95.75;98308.06;5138785;23;20213;-89
2024/02/13 06:25:40;;;;;;;10.38;6.65;;;;;;;6.40;95.95;98309.78;5138769;23;20187;-90
2024/02/13 06:27:45;;;;;;;15.15;8.48;;;;;;;6.45;95.32;98318.19;5137859;23;20179;-89
2024/02/13 06:29:48;;;;;;;12.20;8.85;;;;;;;6.45;96.15;98323.38;5138863;23;20209;-90
2024/02/13 06:31:55;;;;;;;12.25;8.55;;;;;;;6.45;95.81;98325.09;5138204;23;20183;-91
2024/02/13 06:33:58;;;;;;;10.50;6.32;;;;;;;6.46;95.81;98330.22;5137385;23;20190;-90
2024/02/13 06:36:02;;;;;;;10.07;5.70;;;;;;;6.45;96.03;98331.16;5138633;23;20495;-90
2024/02/13 06:38:09;;;;;;;7.40;4.93;;;;;;;6.45;95.67;98333.75;5162349;23;20283;-90
2024/02/13 06:40:13;;;;;;;8.05;4.80;;;;;;;6.45;95.74;98338.91;5190977;22;20204;-90
2024/02/13 06:42:17;;;;;;;7.40;5.15;;;;;;;6.45;95.59;98338.91;5138649;23;20179;-90
2024/02/13 06:44:22;;;;;;;6.97;4.00;;;;;;;6.48;95.67;98341.38;5139081;23;20234;-90
2024/02/13 06:46:25;;;;;;;9.15;5.40;;;;;;;6.51;96.04;98348.13;5188580;22;20168;-90
2024/02/13 06:48:30;;;;;;;8.80;6.00;;;;;;;6.50;95.71;98351.66;5137854;23;20174;-90
2024/02/13 06:50:34;;;;;;;10.63;5.80;;;;;;;6.51;96.05;98354.16;5163629;23;20170;-90
2024/02/13 06:52:36;;;;;;;7.63;5.88;;;;;;;6.51;96.15;98343.81;5162304;23;20182;-90
2024/02/13 06:54:41;;;;;;;12.27;6.30;;;;;;;6.53;95.95;98352.34;5163825;23;20688;-87
2024/02/13 06:56:44;;;;;;;8.25;5.82;;;;;;;6.51;96.32;98354.16;5138814;23;20261;-88
2024/02/13 06:58:47;;;;;;;8.18;5.20;;;;;;;6.50;95.12;98359.41;5163346;23;20641;-88
2024/02/13 07:00:51;;;;;;;9.50;5.90;;;;;;;6.48;96.16;98369.00;5164011;23;20179;-88
2024/02/13 07:02:55;;;;;;;10.77;5.20;;;;;;;6.49;96.52;98365.50;5137800;23;20200;-87
2024/02/13 07:05:00;;;;;;;7.68;5.68;;;;;;;6.53;96.06;98372.22;5163231;23;20189;-88
2024/02/13 07:07:06;;;;;;;9.10;4.90;;;;;;;6.53;96.07;98365.28;5162966;23;20176;-87
2024/02/13 07:09:29;;;;;;;9.43;5.57;;;;;;;6.53;95.71;98372.22;5137214;23;20252;-88
2024/02/13 07:11:33;;;;;;;9.10;5.45;;;;;;;6.53;95.84;98365.28;5189124;22;20208;-88
2024/02/13 07:13:40;;;;;;;11.60;4.70;;;;;;;6.53;96.58;98370.47;5162497;22;20198;-90
2024/02/13 07:15:43;;;;;;;8.70;5.30;;;;;;;6.53;96.61;98370.47;5162917;23;20186;-91
2024/02/13 07:17:46;;;;;;;7.75;4.55;;;;;;;6.58;96.54;98371.06;5136774;23;20658;-91
2024/02/13 07:20:04;;;;;;;7.65;5.10;;;;;;;6.61;96.68;98370.94;5138300;23;20370;-88
2024/02/13 07:22:08;;;;;;;7.25;4.60;;;;;;;6.63;95.91;98374.28;5162688;23;20281;-88
2024/02/13 07:24:11;;;;;;;5.55;4.10;;;;;;;6.66;96.43;98384.50;5162807;23;20655;-85
2024/02/13 07:26:14;;;;;;;8.05;4.90;;;;;;;6.69;96.41;98394.72;5188933;22;20222;-87
2024/02/13 07:28:18;;;;;;;5.65;3.83;;;;;;;6.69;96.21;98389.53;5137086;23;20176;-85
2024/02/13 07:30:21;;;;;;;7.10;4.68;;;;;;;6.71;95.89;98395.50;5189794;22;20182;-86
2024/02/13 07:32:25;;;;;;;6.22;4.22;;;;;;;6.74;96.72;98409.13;5163249;23;20175;-87
2024/02/13 07:34:27;;;;;;;8.90;5.70;;;;;;;6.77;95.44;98403.81;5163157;23;20194;-87
2024/02/13 07:36:32;;;;;;;11.45;6.00;;;;;;;6.79;96.21;98412.34;5137305;23;20186;-87
2024/02/13 07:38:35;;;;;;;9.52;5.78;;;;;;;6.82;95.26;98409.59;5162559;23;20216;-86
2024/02/13 07:40:38;;;;;;;13.25;5.60;;;;;;;6.85;96.30;98416.38;5161294;22;20185;-89
2024/02/13 07:42:41;;;;;;;10.00;6.20;;;;;;;6.86;96.46;98413.72;5138211;23;20186;-87
2024/02/13 07:44:45;;;;;;;10.60;5.60;;;;;;;6.87;96.13;98417.16;5136607;23;20174;-86
2024/02/13 07:46:48;;;;;;;7.63;5.25;;;;;;;6.92;96.41;98416.03;5137485;23;20854;-91
2024/02/13 07:48:55;;;;;;;9.98;5.80;;;;;;;6.97;95.81;98427.00;5136632;23;20175;-91
2024/02/13 07:50:58;;;;;;;7.65;6.10;;;;;;;6.99;97.27;98419.16;5138936;23;20206;-89
2024/02/13 07:53:04;;;;;;;10.15;6.05;;;;;;;7.00;97.76;98420.84;5137873;23;20175;-89
2024/02/13 07:55:08;;;;;;;10.23;5.30;;;;;;;7.03;97.80;98422.34;5163338;23;20330;-89
2024/02/13 07:57:16;;;;;;;8.77;6.20;;;;;;;7.05;97.26;98420.53;5162380;23;20189;-89
2024/02/13 07:59:19;;;;;;;12.50;6.20;;;;;;;7.07;96.26;98420.47;5190431;22;20251;-95
2024/02/13 08:01:23;;;;;;;8.88;6.47;;;;;;;7.10;96.50;98425.50;5136863;23;20181;-89
2024/02/13 08:03:26;;;;;;;11.40;7.30;;;;;;;7.14;96.74;98424.41;5162561;23;20170;-90
2024/02/13 08:05:33;;;;;;;10.27;6.53;;;;;;;7.17;96.91;98427.72;5163529;23;20199;-89
2024/02/13 08:07:36;;;;;;;7.65;5.40;;;;;;;7.21;95.61;98420.59;5137573;23;20179;-86
2024/02/13 08:09:41;;;;;;;9.02;6.55;;;;;;;7.25;95.50;98427.34;5138107;23;20185;-84
2024/02/13 08:11:46;;;;;;;14.43;6.82;;;;;;;7.31;95.28;98422.66;5162262;23;20179;-85
2024/02/13 08:13:50;;;;;;;10.40;5.55;;;;;;;7.34;95.56;98419.91;5137025;23;20192;-85
2024/02/13 08:15:52;;;;;;;18.13;7.50;;;;;;;7.36;95.72;98431.06;5136980;23;20228;-86
2024/02/13 08:17:56;;;;;;;35.38;22.23;;;;;;;7.44;95.43;98428.06;5161399;23;20647;-85
2024/02/13 08:20:03;;;;;;;46.20;26.58;;;;;;;7.51;95.50;98432.88;5136909;23;20335;-85
2024/02/13 08:22:07;;;;;;;31.98;17.98;;;;;;;7.55;97.03;98432.66;5163093;23;20611;-86
2024/02/13 08:24:11;;;;;;;27.67;14.63;;;;;;;7.60;97.51;98429.81;5137420;23;20189;-86
2024/02/13 08:26:15;;;;;;;15.32;8.45;;;;;;;7.66;96.99;98430.31;5162310;23;20534;-85
2024/02/13 08:28:19;;;;;;;13.23;7.40;;;;;;;7.71;97.40;98430.94;5188442;22;20168;-86
2024/02/13 08:30:23;;;;;;;17.08;9.30;;;;;;;7.80;96.83;98437.41;5162379;23;20177;-85
2024/02/13 08:32:26;;;;;;;13.98;9.20;;;;;;;7.90;96.03;98436.03;5162723;23;20702;-85
2024/02/13 08:34:30;;;;;;;19.75;11.75;;;;;;;7.95;97.42;98437.44;5162341;23;20219;-85
2024/02/13 08:36:36;;;;;;;31.83;16.63;;;;;;;8.16;96.89;98441.53;5136801;23;20176;-85
2024/02/13 08:38:41;;;;;;;24.48;14.05;;;;;;;8.56;97.88;98442.75;5160283;23;20197;-86
2024/02/13 08:40:45;;;;;;;12.60;8.35;;;;;;;9.01;97.10;98454.03;5162209;23;20669;-86
2024/02/13 08:42:50;;;;;;;11.77;7.00;;;;;;;9.24;95.50;98453.56;5162996;23;20180;-86
2024/02/13 08:44:52;;;;;;;13.82;8.18;;;;;;;9.57;93.95;98462.03;5138350;23;20197;-85
2024/02/13 08:46:55;;;;;;;9.55;6.70;;;;;;;9.83;92.91;98464.75;5136667;23;20269;-86
2024/02/13 08:49:00;;;;;;;12.38;7.50;;;;;;;9.97;92.51;98463.06;5136681;23;20174;-86
2024/02/13 08:51:05;;;;;;;11.27;6.82;;;;;;;10.02;91.79;98466.22;5137787;23;20169;-86
2024/02/13 08:53:09;;;;;;;11.50;7.28;;;;;;;9.93;91.68;98461.56;5137538;23;20583;-86
2024/02/13 08:55:13;;;;;;;13.15;7.60;;;;;;;9.84;91.30;98465.63;5162155;23;20618;-86
2024/02/13 08:57:16;;;;;;;12.65;6.80;;;;;;;9.83;91.69;98474.34;5189107;22;20173;-84
2024/02/13 08:59:21;;;;;;;9.35;5.80;;;;;;;9.77;91.45;98470.31;5135971;23;20232;-84
2024/02/13 09:01:24;;;;;;;9.30;5.60;;;;;;;9.80;91.14;98472.75;5162595;23;20182;-86
2024/02/13 09:03:27;;;;;;;8.88;5.43;;;;;;;9.83;91.44;98469.13;5162677;23;20177;-86
2024/02/13 09:05:31;;;;;;;7.80;5.20;;;;;;;9.97;91.09;98481.28;5162733;23;20189;-83
2024/02/13 09:07:34;;;;;;;10.15;6.00;;;;;;;10.18;91.19;98482.63;5136185;23;20204;-84
2024/02/13 09:09:37;;;;;;;16.35;9.90;;;;;;;10.32;90.95;98487.81;5136626;23;20178;-84
2024/02/13 09:11:41;;;;;;;9.10;5.38;;;;;;;10.48;90.19;98489.41;5161404;23;20178;-84
2024/02/13 09:13:45;;;;;;;7.07;4.22;;;;;;;10.72;89.43;98481.81;5162794;23;20653;-84
2024/02/13 09:15:49;;;;;;;6.57;4.55;;;;;;;10.75;87.57;98490.31;5136262;23;20594;-84
2024/02/13 09:17:53;;;;;;;6.07;4.33;;;;;;;10.86;87.05;98488.66;5136432;23;20182;-84
2024/02/13 09:19:58;;;;;;;7.70;4.57;;;;;;;11.07;90.03;98491.72;5137213;23;20699;-83
2024/02/13 09:22:01;;;;;;;10.23;4.70;;;;;;;11.15;86.39;98490.25;5136970;23;20646;-83
2024/02/13 09:24:06;;;;;;;9.40;4.73;;;;;;;11.20;84.35;98485.59;5162024;23;21154;-84
2024/02/13 09:26:09;;;;;;;14.13;4.17;;;;;;;11.29;85.46;98485.84;5162268;23;20576;-86
2024/02/13 09:28:12;;;;;;;7.00;4.63;;;;;;;11.39;85.33;98489.50;5136670;23;20687;-87
2024/02/13 09:30:16;;;;;;;8.23;4.40;;;;;;;11.38;85.99;98487.84;5136968;23;20589;-85
2024/02/13 09:32:21;;;;;;;5.57;3.87;;;;;;;11.43;85.87;98490.16;5162116;23;20576;-86
2024/02/13 09:34:24;;;;;;;7.23;4.80;;;;;;;11.49;83.96;98489.81;5189015;22;20610;-85
2024/02/13 09:36:28;;;;;;;6.00;4.10;;;;;;;11.66;87.52;98497.34;5164014;23;20740;-85
2024/02/13 09:38:31;;;;;;;10.93;4.60;;;;;;;11.81;87.09;98490.16;5137669;23;21174;-85
2024/02/13 09:40:35;;;;;;;7.43;4.30;;;;;;;11.98;85.55;98495.13;5137499;23;20931;-85
2024/02/13 09:42:39;;;;;;;6.80;4.07;;;;;;;11.99;85.95;98491.53;5138636;23;20643;-86
2024/02/13 09:44:43;;;;;;;9.00;4.70;;;;;;;11.92;85.06;98492.91;5190665;22;20628;-85
2024/02/13 09:46:47;;;;;;;9.87;4.83;;;;;;;11.94;84.33;98487.59;5138060;23;20621;-84
2024/02/13 09:48:54;;;;;;;9.20;5.00;;;;;;;12.04;86.61;98489.47;5138363;23;20569;-84
2024/02/13 09:50:58;;;;;;;8.00;5.37;;;;;;;12.01;82.27;98489.69;5163458;23;21110;-84
2024/02/13 09:53:05;;;;;;;6.83;3.77;;;;;;;11.83;84.04;98471.75;5138464;23;20923;-84